createdAt,value
2023-04-18T04:00:48.762Z,1013.10
2023-04-18T04:01:49.743Z,1013.11
2023-04-18T04:02:49.901Z,1013.13
2023-04-18T04:03:49.843Z,1013.14
2023-04-18T04:04:49.706Z,1013.15
2023-04-18T04:05:49.650Z,1013.13
2023-04-18T04:06:49.651Z,1013.14
2023-04-18T04:07:49.663Z,1013.14
2023-04-18T04:08:49.671Z,1013.15
2023-04-18T04:09:49.607Z,1013.13
2023-04-18T04:10:49.593Z,1013.12
2023-04-18T04:11:49.600Z,1013.10
2023-04-18T04:12:49.616Z,1013.10
2023-04-18T04:13:49.573Z,1013.07
2023-04-18T04:14:49.561Z,1013.09
2023-04-18T04:15:49.555Z,1013.10
2023-04-18T04:16:49.585Z,1013.12
2023-04-18T04:17:49.564Z,1013.14
2023-04-18T04:18:49.526Z,1013.16
2023-04-18T04:19:49.494Z,1013.16
2023-04-18T04:20:49.518Z,1013.15
2023-04-18T04:21:49.473Z,1013.15
2023-04-18T04:22:49.570Z,1013.16
2023-04-18T04:23:49.473Z,1013.17
2023-04-18T04:24:49.468Z,1013.21
2023-04-18T04:25:49.439Z,1013.18
2023-04-18T04:26:49.458Z,1013.19
2023-04-18T04:27:49.414Z,1013.21
2023-04-18T04:28:49.428Z,1013.25
2023-04-18T04:29:49.412Z,1013.25
2023-04-18T04:30:49.383Z,1013.25
2023-04-18T04:31:49.437Z,1013.27
2023-04-18T04:32:49.436Z,1013.23
2023-04-18T04:33:49.388Z,1013.25
2023-04-18T04:34:49.355Z,1013.28
2023-04-18T04:35:49.396Z,1013.27
2023-04-18T04:36:49.468Z,1013.27
2023-04-18T04:37:49.414Z,1013.28
2023-04-18T04:38:49.317Z,1013.29
2023-04-18T04:39:49.290Z,1013.29
2023-04-18T04:40:49.283Z,1013.29
2023-04-18T04:41:49.276Z,1013.29
2023-04-18T04:42:49.346Z,1013.30
2023-04-18T04:43:49.307Z,1013.29
2023-04-18T04:44:49.352Z,1013.31
2023-04-18T04:45:49.270Z,1013.33
2023-04-18T04:46:49.219Z,1013.34
2023-04-18T04:47:49.254Z,1013.35
2023-04-18T04:48:49.205Z,1013.36
2023-04-18T04:49:49.191Z,1013.35
2023-04-18T04:50:49.209Z,1013.33
2023-04-18T04:51:49.167Z,1013.35
2023-04-18T04:52:49.181Z,1013.39
2023-04-18T04:53:49.220Z,1013.40
2023-04-18T04:54:49.162Z,1013.43
2023-04-18T04:55:49.157Z,1013.45
2023-04-18T04:56:49.119Z,1013.41
2023-04-18T04:57:49.153Z,1013.44
2023-04-18T04:58:49.095Z,1013.45
2023-04-18T04:59:49.101Z,1013.45
2023-04-18T05:00:49.081Z,1013.48
2023-04-18T05:01:49.200Z,1013.50
2023-04-18T05:02:49.268Z,1013.46
2023-04-18T05:03:49.228Z,1013.49
2023-04-18T05:04:49.048Z,1013.50
2023-04-18T05:05:49.040Z,1013.49
2023-04-18T05:06:49.036Z,1013.50
2023-04-18T05:07:49.025Z,1013.51
2023-04-18T05:08:48.988Z,1013.52
2023-04-18T05:09:48.998Z,1013.50
2023-04-18T05:10:48.960Z,1013.52
2023-04-18T05:11:48.988Z,1013.51
2023-04-18T05:12:48.961Z,1013.52
2023-04-18T05:13:48.940Z,1013.52
2023-04-18T05:14:48.929Z,1013.55
2023-04-18T05:15:48.939Z,1013.55
2023-04-18T05:16:49.021Z,1013.56
2023-04-18T05:17:49.059Z,1013.56
2023-04-18T05:18:48.889Z,1013.58
2023-04-18T05:19:48.925Z,1013.60
2023-04-18T05:20:48.873Z,1013.64
2023-04-18T05:21:48.865Z,1013.59
2023-04-18T05:22:48.920Z,1013.60
2023-04-18T05:23:48.848Z,1013.60
2023-04-18T05:24:48.832Z,1013.61
2023-04-18T05:25:48.845Z,1013.60
2023-04-18T05:26:48.861Z,1013.58
2023-04-18T05:27:48.868Z,1013.62
2023-04-18T05:28:48.795Z,1013.58
2023-04-18T05:29:48.788Z,1013.61
2023-04-18T05:30:48.856Z,1013.62
2023-04-18T05:31:48.768Z,1013.61
2023-04-18T05:32:48.819Z,1013.61
2023-04-18T05:33:48.750Z,1013.65
2023-04-18T05:34:48.750Z,1013.64
2023-04-18T05:35:48.718Z,1013.66
2023-04-18T05:36:48.728Z,1013.66
2023-04-18T05:37:48.724Z,1013.64
2023-04-18T05:38:48.683Z,1013.65
2023-04-18T05:39:48.681Z,1013.61
2023-04-18T05:40:48.658Z,1013.62
2023-04-18T05:41:48.657Z,1013.64
2023-04-18T05:42:48.680Z,1013.65
2023-04-18T05:44:01.833Z,1013.64
2023-04-18T05:44:48.624Z,1013.62
2023-04-18T05:45:48.659Z,1013.67
2023-04-18T05:46:48.657Z,1013.68
2023-04-18T05:47:48.618Z,1013.69
2023-04-18T05:48:48.575Z,1013.68
2023-04-18T05:49:48.593Z,1013.64
2023-04-18T05:50:48.567Z,1013.66
2023-04-18T05:51:48.598Z,1013.68
2023-04-18T05:52:48.577Z,1013.70
2023-04-18T05:53:48.585Z,1013.70
2023-04-18T05:54:48.529Z,1013.76
2023-04-18T05:55:48.508Z,1013.75
2023-04-18T05:56:48.493Z,1013.80
2023-04-18T05:57:48.526Z,1013.75
2023-04-18T05:58:48.511Z,1013.78
2023-04-18T05:59:48.504Z,1013.79
2023-04-18T06:00:48.506Z,1013.78
2023-04-18T06:01:48.454Z,1013.78
2023-04-18T06:02:48.590Z,1013.83
2023-04-18T06:03:48.746Z,1013.81
2023-04-18T06:04:48.640Z,1013.82
2023-04-18T06:05:48.463Z,1013.82
2023-04-18T06:06:48.420Z,1013.84
2023-04-18T06:07:48.427Z,1013.85
2023-04-18T06:08:48.376Z,1013.87
2023-04-18T06:09:48.378Z,1013.84
2023-04-18T06:10:54.852Z,1013.89
2023-04-18T06:11:48.332Z,1013.88
2023-04-18T06:12:48.360Z,1013.88
2023-04-18T06:13:48.373Z,1013.88
2023-04-18T06:14:48.301Z,1013.90
2023-04-18T06:15:48.345Z,1013.93
2023-04-18T06:16:48.299Z,1013.93
2023-04-18T06:17:48.344Z,1013.94
2023-04-18T06:18:48.265Z,1013.93
2023-04-18T06:19:48.250Z,1013.92
2023-04-18T06:20:48.256Z,1013.95
2023-04-18T06:21:48.235Z,1013.98
2023-04-18T06:22:48.310Z,1013.98
2023-04-18T06:23:48.252Z,1013.95
2023-04-18T06:24:48.211Z,1013.97
2023-04-18T06:25:48.189Z,1013.99
2023-04-18T06:26:48.178Z,1013.99
2023-04-18T06:27:48.226Z,1014.02
2023-04-18T06:28:48.181Z,1014.02
2023-04-18T06:29:48.152Z,1014.04
2023-04-18T06:30:48.134Z,1014.08
2023-04-18T06:31:48.135Z,1014.07
2023-04-18T06:32:48.224Z,1014.05
2023-04-18T06:33:48.180Z,1014.09
2023-04-18T06:34:48.100Z,1014.12
2023-04-18T06:35:48.103Z,1014.08
2023-04-18T06:36:48.088Z,1014.08
2023-04-18T06:37:48.140Z,1014.07
2023-04-18T06:38:48.048Z,1014.08
2023-04-18T06:39:48.088Z,1014.05
2023-04-18T06:40:48.054Z,1014.10
2023-04-18T06:41:48.029Z,1014.08
2023-04-18T06:42:48.382Z,1014.10
2023-04-18T06:44:02.078Z,1014.11
2023-04-18T06:44:48.008Z,1014.05
2023-04-18T06:45:48.032Z,1014.05
2023-04-18T06:46:47.977Z,1014.09
2023-04-18T06:47:48.061Z,1014.12
2023-04-18T06:48:49.859Z,1014.15
2023-04-18T06:49:47.970Z,1014.16
2023-04-18T06:50:47.935Z,1014.10
2023-04-18T06:51:47.924Z,1014.19
2023-04-18T06:52:48.026Z,1014.16
2023-04-18T06:53:47.921Z,1014.18
2023-04-18T06:54:47.889Z,1014.18
2023-04-18T06:55:47.876Z,1014.22
2023-04-18T06:56:47.876Z,1014.23
2023-04-18T06:57:47.859Z,1014.23
2023-04-18T06:58:47.862Z,1014.23
2023-04-18T06:59:47.833Z,1014.23
2023-04-18T07:00:47.869Z,1014.24
2023-04-18T07:01:47.832Z,1014.21
2023-04-18T07:02:47.994Z,1014.24
2023-04-18T07:03:48.098Z,1014.23
2023-04-18T07:04:47.834Z,1014.23
2023-04-18T07:05:47.772Z,1014.24
2023-04-18T07:06:47.768Z,1014.22
2023-04-18T07:07:47.772Z,1014.22
2023-04-18T07:08:47.726Z,1014.25
2023-04-18T07:09:47.738Z,1014.26
2023-04-18T07:10:47.718Z,1014.26
2023-04-18T07:11:47.710Z,1014.27
2023-04-18T07:12:47.792Z,1014.19
2023-04-18T07:13:47.737Z,1014.21
2023-04-18T07:14:47.708Z,1014.22
2023-04-18T07:15:47.691Z,1014.21
2023-04-18T07:16:47.729Z,1014.26
2023-04-18T07:17:47.780Z,1014.26
2023-04-18T07:18:47.640Z,1014.26
2023-04-18T07:19:47.651Z,1014.23
2023-04-18T07:20:47.637Z,1014.23
2023-04-18T07:21:47.616Z,1014.21
2023-04-18T07:22:47.692Z,1014.26
2023-04-18T07:23:47.673Z,1014.26
2023-04-18T07:24:47.619Z,1014.24
2023-04-18T07:25:47.561Z,1014.25
2023-04-18T07:26:47.556Z,1014.26
2023-04-18T07:27:47.580Z,1014.26
2023-04-18T07:28:47.703Z,1014.24
2023-04-18T07:29:47.531Z,1014.21
2023-04-18T07:30:47.572Z,1014.24
2023-04-18T07:31:47.500Z,1014.23
2023-04-18T07:32:47.555Z,1014.30
2023-04-18T07:33:47.485Z,1014.28
2023-04-18T07:34:47.489Z,1014.30
2023-04-18T07:35:47.460Z,1014.32
2023-04-18T07:36:47.443Z,1014.33
2023-04-18T07:37:47.463Z,1014.34
2023-04-18T07:38:47.432Z,1014.33
2023-04-18T07:39:47.445Z,1014.29
2023-04-18T07:40:47.435Z,1014.28
2023-04-18T07:41:47.430Z,1014.29
2023-04-18T07:42:47.454Z,1014.34
2023-04-18T07:43:47.400Z,1014.43
2023-04-18T07:44:47.353Z,1014.40
2023-04-18T07:45:47.369Z,1014.40
2023-04-18T07:46:47.414Z,1014.41
2023-04-18T07:47:47.395Z,1014.41
2023-04-18T07:48:47.313Z,1014.44
2023-04-18T07:49:47.317Z,1014.41
2023-04-18T07:50:47.293Z,1014.45
2023-04-18T07:51:47.294Z,1014.44
2023-04-18T07:52:47.325Z,1014.46
2023-04-18T07:53:47.265Z,1014.39
2023-04-18T07:54:47.265Z,1014.41
2023-04-18T07:55:47.253Z,1014.34
2023-04-18T07:56:47.254Z,1014.35
2023-04-18T07:57:47.587Z,1014.30
2023-04-18T07:58:47.219Z,1014.35
2023-04-18T07:59:47.206Z,1014.36
2023-04-18T08:00:47.225Z,1014.40
2023-04-18T08:01:47.225Z,1014.43
2023-04-18T08:02:47.370Z,1014.43
2023-04-18T08:03:47.282Z,1014.44
2023-04-18T08:04:47.482Z,1014.47
2023-04-18T08:05:47.181Z,1014.44
2023-04-18T08:06:47.125Z,1014.48
2023-04-18T08:07:47.154Z,1014.47
2023-04-18T08:08:47.119Z,1014.41
2023-04-18T08:09:47.118Z,1014.46
2023-04-18T08:10:47.104Z,1014.40
2023-04-18T08:11:47.114Z,1014.43
2023-04-18T08:12:47.090Z,1014.44
2023-04-18T08:13:47.111Z,1014.41
2023-04-18T08:14:47.071Z,1014.40
2023-04-18T08:15:47.123Z,1014.38
2023-04-18T08:16:47.071Z,1014.40
2023-04-18T08:17:47.084Z,1014.39
2023-04-18T08:18:47.094Z,1014.39
2023-04-18T08:19:46.990Z,1014.38
2023-04-18T08:20:46.983Z,1014.37
2023-04-18T08:21:46.973Z,1014.36
2023-04-18T08:23:02.375Z,1014.37
2023-04-18T08:23:46.999Z,1014.40
2023-04-18T08:25:03.181Z,1014.44
2023-04-18T08:25:46.995Z,1014.44
2023-04-18T08:26:46.933Z,1014.48
2023-04-18T08:27:46.923Z,1014.51
2023-04-18T08:28:46.928Z,1014.54
2023-04-18T08:29:46.919Z,1014.55
2023-04-18T08:30:46.897Z,1014.57
2023-04-18T08:31:46.965Z,1014.55
2023-04-18T08:32:46.937Z,1014.52
2023-04-18T08:33:46.886Z,1014.51
2023-04-18T08:34:46.827Z,1014.51
2023-04-18T08:35:46.820Z,1014.53
2023-04-18T08:36:46.844Z,1014.55
2023-04-18T08:37:46.808Z,1014.54
2023-04-18T08:38:46.870Z,1014.57
2023-04-18T08:39:46.786Z,1014.57
2023-04-18T08:40:46.800Z,1014.60
2023-04-18T08:41:46.764Z,1014.56
2023-04-18T08:42:46.761Z,1014.59
2023-04-18T08:43:46.790Z,1014.56
2023-04-18T08:44:46.732Z,1014.56
2023-04-18T08:45:46.766Z,1014.59
2023-04-18T08:46:46.706Z,1014.58
2023-04-18T08:47:46.732Z,1014.54
2023-04-18T08:48:46.715Z,1014.54
2023-04-18T08:49:46.678Z,1014.49
2023-04-18T08:50:46.662Z,1014.41
2023-04-18T08:51:46.649Z,1014.44
2023-04-18T08:52:46.660Z,1014.39
2023-04-18T08:53:46.680Z,1014.38
2023-04-18T08:54:46.688Z,1014.39
2023-04-18T08:55:46.669Z,1014.37
2023-04-18T08:56:46.610Z,1014.42
2023-04-18T08:57:46.590Z,1014.45
2023-04-18T08:58:46.600Z,1014.46
2023-04-18T08:59:48.950Z,1014.48
2023-04-18T09:00:46.593Z,1014.52
2023-04-18T09:01:46.639Z,1014.52
2023-04-18T09:02:46.638Z,1014.54
2023-04-18T09:03:46.556Z,1014.54
2023-04-18T09:04:46.515Z,1014.51
2023-04-18T09:05:46.512Z,1014.50
2023-04-18T09:06:46.582Z,1014.51
2023-04-18T09:07:46.485Z,1014.56
2023-04-18T09:08:46.723Z,1014.57
2023-04-18T09:09:46.482Z,1014.56
2023-04-18T09:10:46.852Z,1014.60
2023-04-18T09:11:46.512Z,1014.58
2023-04-18T09:12:46.520Z,1014.57
2023-04-18T09:13:46.496Z,1014.57
2023-04-18T09:14:46.423Z,1014.57
2023-04-18T09:15:46.396Z,1014.59
2023-04-18T09:16:46.464Z,1014.54
2023-04-18T09:17:46.398Z,1014.60
2023-04-18T09:18:46.374Z,1014.62
2023-04-18T09:19:46.402Z,1014.62
2023-04-18T09:20:46.521Z,1014.61
2023-04-18T09:21:46.380Z,1014.61
2023-04-18T09:22:46.347Z,1014.60
2023-04-18T09:23:46.326Z,1014.62
2023-04-18T09:24:46.326Z,1014.62
2023-04-18T09:25:46.339Z,1014.66
2023-04-18T09:26:46.379Z,1014.66
2023-04-18T09:27:46.330Z,1014.68
2023-04-18T09:28:46.326Z,1014.65
2023-04-18T09:29:46.283Z,1014.68
2023-04-18T09:30:46.279Z,1014.68
2023-04-18T09:31:46.282Z,1014.69
2023-04-18T09:32:46.311Z,1014.70
2023-04-18T09:33:46.246Z,1014.70
2023-04-18T09:34:46.211Z,1014.71
2023-04-18T09:35:46.198Z,1014.69
2023-04-18T09:36:46.362Z,1014.70
2023-04-18T09:37:46.199Z,1014.68
2023-04-18T09:38:46.160Z,1014.68
2023-04-18T09:39:46.175Z,1014.70
2023-04-18T09:40:46.144Z,1014.69
2023-04-18T09:41:46.128Z,1014.71
2023-04-18T09:42:46.145Z,1014.71
2023-04-18T09:43:46.137Z,1014.75
2023-04-18T09:44:46.176Z,1014.73
2023-04-18T09:45:46.175Z,1014.75
2023-04-18T09:46:47.369Z,1014.74
2023-04-18T09:47:46.190Z,1014.69
2023-04-18T09:48:46.087Z,1014.73
2023-04-18T09:49:46.072Z,1014.73
2023-04-18T09:50:46.046Z,1014.73
2023-04-18T09:51:46.033Z,1014.70
2023-04-18T09:52:46.018Z,1014.70
2023-04-18T09:53:46.027Z,1014.71
2023-04-18T09:54:47.139Z,1014.69
2023-04-18T09:55:46.036Z,1014.66
2023-04-18T09:56:45.972Z,1014.64
2023-04-18T09:57:45.967Z,1014.65
2023-04-18T09:58:45.958Z,1014.66
2023-04-18T09:59:45.955Z,1014.61
2023-04-18T10:00:46.952Z,1014.68
2023-04-18T10:01:45.961Z,1014.67
2023-04-18T10:02:45.995Z,1014.66
2023-04-18T10:03:45.999Z,1014.66
2023-04-18T10:04:46.035Z,1014.67
2023-04-18T10:05:45.951Z,1014.68
2023-04-18T10:06:45.920Z,1014.71
2023-04-18T10:07:45.897Z,1014.69
2023-04-18T10:08:45.856Z,1014.68
2023-04-18T10:09:45.922Z,1014.67
2023-04-18T10:10:45.884Z,1014.68
2023-04-18T10:11:45.810Z,1014.68
2023-04-18T10:12:45.803Z,1014.65
2023-04-18T10:13:45.785Z,1014.67
2023-04-18T10:14:45.809Z,1014.65
2023-04-18T10:15:45.801Z,1014.64
2023-04-18T10:16:45.810Z,1014.65
2023-04-18T10:17:56.214Z,1014.64
2023-04-18T10:18:45.799Z,1014.61
2023-04-18T10:19:45.754Z,1014.63
2023-04-18T10:20:45.718Z,1014.60
2023-04-18T10:21:45.703Z,1014.59
2023-04-18T10:22:45.705Z,1014.61
2023-04-18T10:23:45.688Z,1014.60
2023-04-18T10:24:45.729Z,1014.59
2023-04-18T10:25:45.681Z,1014.57
2023-04-18T10:26:45.651Z,1014.59
2023-04-18T10:27:45.633Z,1014.58
2023-04-18T10:28:46.027Z,1014.56
2023-04-18T10:29:45.684Z,1014.56
2023-04-18T10:30:45.625Z,1014.54
2023-04-18T10:31:45.649Z,1014.55
2023-04-18T10:32:45.650Z,1014.55
2023-04-18T10:33:52.816Z,1014.56
2023-04-18T10:34:45.589Z,1014.55
2023-04-18T10:35:45.577Z,1014.55
2023-04-18T10:36:45.558Z,1014.55
2023-04-18T10:37:45.524Z,1014.57
2023-04-18T10:38:45.569Z,1014.54
2023-04-18T10:39:45.504Z,1014.52
2023-04-18T10:40:45.610Z,1014.54
2023-04-18T10:41:45.489Z,1014.50
2023-04-18T10:42:45.520Z,1014.51
2023-04-18T10:43:45.459Z,1014.51
2023-04-18T10:44:45.496Z,1014.50
2023-04-18T10:45:45.451Z,1014.48
2023-04-18T10:46:45.457Z,1014.51
2023-04-18T10:47:45.593Z,1014.49
2023-04-18T10:48:45.441Z,1014.50
2023-04-18T10:49:45.460Z,1014.50
2023-04-18T10:50:45.416Z,1014.50
2023-04-18T10:51:45.382Z,1014.54
2023-04-18T10:52:45.361Z,1014.49
2023-04-18T10:53:45.382Z,1014.47
2023-04-18T10:54:45.454Z,1014.48
2023-04-18T10:55:45.343Z,1014.51
2023-04-18T10:56:45.337Z,1014.50
2023-04-18T10:57:45.329Z,1014.52
2023-04-18T10:58:45.303Z,1014.54
2023-04-18T10:59:45.344Z,1014.51
2023-04-18T11:00:45.377Z,1014.51
2023-04-18T11:01:45.303Z,1014.45
2023-04-18T11:02:45.414Z,1014.43
2023-04-18T11:03:45.286Z,1014.45
2023-04-18T11:04:45.237Z,1014.49
2023-04-18T11:05:45.299Z,1014.46
2023-04-18T11:06:45.223Z,1014.45
2023-04-18T11:07:45.214Z,1014.48
2023-04-18T11:08:45.211Z,1014.45
2023-04-18T11:09:45.556Z,1014.46
2023-04-18T11:10:45.234Z,1014.43
2023-04-18T11:11:45.189Z,1014.44
2023-04-18T11:12:45.160Z,1014.48
2023-04-18T11:13:45.147Z,1014.46
2023-04-18T11:14:45.202Z,1014.44
2023-04-18T11:15:45.135Z,1014.42
2023-04-18T11:16:45.271Z,1014.43
2023-04-18T11:17:45.169Z,1014.45
2023-04-18T11:18:45.088Z,1014.42
2023-04-18T11:19:45.117Z,1014.47
2023-04-18T11:20:45.064Z,1014.46
2023-04-18T11:21:45.104Z,1014.49
2023-04-18T11:22:45.073Z,1014.46
2023-04-18T11:23:45.057Z,1014.42
2023-04-18T11:24:45.093Z,1014.43
2023-04-18T11:25:45.037Z,1014.44
2023-04-18T11:26:45.011Z,1014.47
2023-04-18T11:27:44.997Z,1014.47
2023-04-18T11:28:45.044Z,1014.47
2023-04-18T11:29:45.012Z,1014.45
2023-04-18T11:30:44.973Z,1014.46
2023-04-18T11:31:44.984Z,1014.45
2023-04-18T11:32:45.026Z,1014.43
2023-04-18T11:33:44.928Z,1014.42
2023-04-18T11:34:44.953Z,1014.40
2023-04-18T11:35:44.970Z,1014.41
2023-04-18T11:36:44.905Z,1014.38
2023-04-18T11:37:44.884Z,1014.39
2023-04-18T11:38:44.876Z,1014.38
2023-04-18T11:39:44.919Z,1014.36
2023-04-18T11:40:44.943Z,1014.33
2023-04-18T11:41:44.853Z,1014.35
2023-04-18T11:42:44.849Z,1014.38
2023-04-18T11:43:44.866Z,1014.39
2023-04-18T11:44:44.846Z,1014.35
2023-04-18T11:45:44.857Z,1014.33
2023-04-18T11:46:44.834Z,1014.37
2023-04-18T11:47:44.803Z,1014.39
2023-04-18T11:48:44.791Z,1014.34
2023-04-18T11:49:44.770Z,1014.35
2023-04-18T11:50:44.771Z,1014.35
2023-04-18T11:51:44.744Z,1014.32
2023-04-18T11:52:44.790Z,1014.33
2023-04-18T11:53:44.725Z,1014.33
2023-04-18T11:54:44.722Z,1014.30
2023-04-18T11:55:44.724Z,1014.34
2023-04-18T11:56:44.694Z,1014.33
2023-04-18T11:57:44.719Z,1014.32
2023-04-18T11:58:44.673Z,1014.32
2023-04-18T11:59:44.716Z,1014.35
2023-04-18T12:00:44.811Z,1014.34
2023-04-18T12:01:44.638Z,1014.33
2023-04-18T12:02:44.793Z,1014.34
2023-04-18T12:03:44.935Z,1014.33
2023-04-18T12:04:44.870Z,1014.27
2023-04-18T12:05:44.861Z,1014.25
2023-04-18T12:06:44.625Z,1014.30
2023-04-18T12:07:44.585Z,1014.32
2023-04-18T12:08:44.595Z,1014.36
2023-04-18T12:09:44.576Z,1014.33
2023-04-18T12:10:44.609Z,1014.29
2023-04-18T12:11:44.558Z,1014.32
2023-04-18T12:12:44.583Z,1014.35
2023-04-18T12:13:44.504Z,1014.29
2023-04-18T12:14:44.503Z,1014.31
2023-04-18T12:15:44.730Z,1014.33
2023-04-18T12:16:44.481Z,1014.35
2023-04-18T12:17:44.507Z,1014.29
2023-04-18T12:18:44.500Z,1014.33
2023-04-18T12:19:44.437Z,1014.35
2023-04-18T12:20:44.445Z,1014.35
2023-04-18T12:21:44.464Z,1014.36
2023-04-18T12:22:44.410Z,1014.26
2023-04-18T12:23:44.408Z,1014.32
2023-04-18T12:24:44.415Z,1014.26
2023-04-18T12:25:44.420Z,1014.24
2023-04-18T12:26:44.407Z,1014.28
2023-04-18T12:27:44.439Z,1014.29
2023-04-18T12:28:44.380Z,1014.21
2023-04-18T12:29:44.379Z,1014.26
2023-04-18T12:30:44.421Z,1014.28
2023-04-18T12:31:44.382Z,1014.24
2023-04-18T12:32:44.468Z,1014.20
2023-04-18T12:33:44.316Z,1014.22
2023-04-18T12:34:44.332Z,1014.19
2023-04-18T12:35:44.359Z,1014.19
2023-04-18T12:36:44.256Z,1014.13
2023-04-18T12:37:44.253Z,1014.13
2023-04-18T12:38:44.253Z,1014.11
2023-04-18T12:39:44.280Z,1014.12
2023-04-18T12:40:44.298Z,1014.07
2023-04-18T12:41:44.225Z,1014.04
2023-04-18T12:42:44.197Z,1014.08
2023-04-18T12:43:44.257Z,1014.08
2023-04-18T12:44:44.883Z,1014.06
2023-04-18T12:45:44.236Z,1014.13
2023-04-18T12:46:44.186Z,1014.11
2023-04-18T12:47:44.189Z,1014.10
2023-04-18T12:48:44.136Z,1014.08
2023-04-18T12:49:44.141Z,1014.00
2023-04-18T12:50:44.171Z,1014.02
2023-04-18T12:51:44.146Z,1014.06
2023-04-18T12:52:44.100Z,1014.03
2023-04-18T12:53:44.335Z,1014.02
2023-04-18T12:54:44.079Z,1014.02
2023-04-18T12:55:44.143Z,1014.07
2023-04-18T12:56:44.119Z,1014.02
2023-04-18T12:57:44.056Z,1014.05
2023-04-18T12:58:44.068Z,1014.01
2023-04-18T12:59:44.004Z,1014.00
2023-04-18T13:00:44.081Z,1014.00
2023-04-18T13:01:44.055Z,1013.97
2023-04-18T13:02:44.167Z,1014.03
2023-04-18T13:03:48.650Z,1014.00
2023-04-18T13:04:44.077Z,1014.00
2023-04-18T13:05:44.048Z,1014.04
2023-04-18T13:06:43.965Z,1013.99
2023-04-18T13:07:44.082Z,1014.02
2023-04-18T13:08:43.960Z,1013.93
2023-04-18T13:09:43.987Z,1013.99
2023-04-18T13:10:43.962Z,1014.03
2023-04-18T13:11:43.930Z,1014.03
2023-04-18T13:12:43.900Z,1014.02
2023-04-18T13:13:43.887Z,1014.01
2023-04-18T13:14:43.876Z,1014.00
2023-04-18T13:15:43.934Z,1013.98
2023-04-18T13:16:44.251Z,1013.99
2023-04-18T13:17:43.858Z,1013.98
2023-04-18T13:18:43.825Z,1013.93
2023-04-18T13:19:43.828Z,1013.96
2023-04-18T13:20:43.924Z,1013.92
2023-04-18T13:21:43.832Z,1013.91
2023-04-18T13:22:43.775Z,1013.94
2023-04-18T13:23:43.765Z,1013.91
2023-04-18T13:24:43.793Z,1013.92
2023-04-18T13:25:43.800Z,1013.98
2023-04-18T13:26:43.753Z,1013.98
2023-04-18T13:27:43.893Z,1013.93
2023-04-18T13:28:43.704Z,1013.93
2023-04-18T13:29:43.784Z,1013.93
2023-04-18T13:30:43.726Z,1014.01
2023-04-18T13:31:43.798Z,1013.98
2023-04-18T13:32:43.733Z,1013.93
2023-04-18T13:33:43.685Z,1014.00
2023-04-18T13:34:43.694Z,1013.97
2023-04-18T13:35:43.650Z,1013.99
2023-04-18T13:36:43.630Z,1013.99
2023-04-18T13:37:43.635Z,1013.98
2023-04-18T13:38:43.608Z,1013.97
2023-04-18T13:39:43.657Z,1013.97
2023-04-18T13:40:43.595Z,1014.01
2023-04-18T13:41:43.629Z,1014.00
2023-04-18T13:42:43.562Z,1014.00
2023-04-18T13:43:43.607Z,1013.98
2023-04-18T13:44:43.618Z,1013.95
2023-04-18T13:45:43.614Z,1013.94
2023-04-18T13:46:43.654Z,1013.95
2023-04-18T13:47:43.551Z,1013.91
2023-04-18T13:48:43.516Z,1013.89
2023-04-18T13:49:43.584Z,1013.88
2023-04-18T13:50:43.485Z,1013.89
2023-04-18T13:51:43.482Z,1013.91
2023-04-18T13:52:43.476Z,1013.85
2023-04-18T13:53:43.440Z,1013.87
2023-04-18T13:54:43.460Z,1013.87
2023-04-18T13:55:43.467Z,1013.89
2023-04-18T13:56:43.422Z,1013.90
2023-04-18T13:57:43.451Z,1013.92
2023-04-18T13:58:43.389Z,1013.90
2023-04-18T13:59:43.373Z,1013.89
2023-04-18T14:00:43.405Z,1013.88
2023-04-18T14:01:43.382Z,1013.88
2023-04-18T14:02:43.440Z,1013.91
2023-04-18T14:03:44.032Z,1013.89
2023-04-18T14:04:43.460Z,1013.84
2023-04-18T14:05:43.322Z,1013.86
2023-04-18T14:06:43.392Z,1013.83
2023-04-18T14:07:43.315Z,1013.85
2023-04-18T14:08:43.327Z,1013.91
2023-04-18T14:09:43.310Z,1013.94
2023-04-18T14:10:43.294Z,1013.92
2023-04-18T14:11:43.325Z,1013.99
2023-04-18T14:12:43.251Z,1013.99
2023-04-18T14:13:43.277Z,1013.97
2023-04-18T14:14:43.307Z,1013.97
2023-04-18T14:15:43.227Z,1013.99
2023-04-18T14:16:43.215Z,1013.92
2023-04-18T14:17:45.450Z,1013.94
2023-04-18T14:18:43.206Z,1013.92
2023-04-18T14:19:43.220Z,1013.93
2023-04-18T14:20:43.213Z,1013.89
2023-04-18T14:21:43.142Z,1013.91
2023-04-18T14:22:43.135Z,1013.87
2023-04-18T14:23:43.184Z,1013.83
2023-04-18T14:24:43.181Z,1013.87
2023-04-18T14:25:43.128Z,1013.89
2023-04-18T14:26:43.230Z,1013.92
2023-04-18T14:27:43.103Z,1013.84
2023-04-18T14:28:43.089Z,1013.89
2023-04-18T14:29:43.082Z,1013.91
2023-04-18T14:30:43.045Z,1013.88
2023-04-18T14:31:43.069Z,1013.88
2023-04-18T14:32:43.071Z,1013.90
2023-04-18T14:33:43.073Z,1013.89
2023-04-18T14:34:43.084Z,1013.90
2023-04-18T14:35:43.021Z,1013.86
2023-04-18T14:36:43.009Z,1013.85
2023-04-18T14:37:42.996Z,1013.82
2023-04-18T14:38:42.983Z,1013.83
2023-04-18T14:39:43.066Z,1013.83
2023-04-18T14:40:42.949Z,1013.83
2023-04-18T14:41:42.943Z,1013.81
2023-04-18T14:42:42.934Z,1013.83
2023-04-18T14:43:43.040Z,1013.86
2023-04-18T14:44:43.116Z,1013.85
2023-04-18T14:45:42.926Z,1013.89
2023-04-18T14:46:42.981Z,1013.81
2023-04-18T14:47:42.956Z,1013.85
2023-04-18T14:48:42.933Z,1013.88
2023-04-18T14:49:42.928Z,1013.88
2023-04-18T14:50:42.874Z,1013.91
2023-04-18T14:51:42.841Z,1013.88
2023-04-18T14:52:42.883Z,1013.84
2023-04-18T14:53:42.820Z,1013.84
2023-04-18T14:54:42.882Z,1013.84
2023-04-18T14:55:42.803Z,1013.88
2023-04-18T14:56:42.789Z,1013.81
2023-04-18T14:57:42.820Z,1013.78
2023-04-18T14:58:42.835Z,1013.77
2023-04-18T14:59:42.916Z,1013.75
2023-04-18T15:00:42.758Z,1013.77
2023-04-18T15:01:42.769Z,1013.77
2023-04-18T15:02:42.976Z,1013.75
2023-04-18T15:03:42.933Z,1013.73
2023-04-18T15:04:42.825Z,1013.73
2023-04-18T15:05:42.731Z,1013.74
2023-04-18T15:06:42.697Z,1013.72
2023-04-18T15:07:42.680Z,1013.75
2023-04-18T15:08:42.656Z,1013.77
2023-04-18T15:09:42.779Z,1013.74
2023-04-18T15:10:42.686Z,1013.81
2023-04-18T15:11:42.656Z,1013.81
2023-04-18T15:12:42.638Z,1013.80
2023-04-18T15:13:42.615Z,1013.81
2023-04-18T15:14:42.630Z,1013.86
2023-04-18T15:15:42.592Z,1013.74
2023-04-18T15:16:42.640Z,1013.83
2023-04-18T15:17:42.666Z,1013.81
2023-04-18T15:18:42.574Z,1013.84
2023-04-18T15:19:42.570Z,1013.79
2023-04-18T15:20:42.600Z,1013.82
2023-04-18T15:21:42.550Z,1013.81
2023-04-18T15:22:42.537Z,1013.83
2023-04-18T15:23:42.505Z,1013.84
2023-04-18T15:24:42.560Z,1013.83
2023-04-18T15:25:42.498Z,1013.82
2023-04-18T15:26:42.493Z,1013.81
2023-04-18T15:27:42.574Z,1013.80
2023-04-18T15:28:42.575Z,1013.78
2023-04-18T15:29:42.497Z,1013.80
2023-04-18T15:30:42.578Z,1013.79
2023-04-18T15:31:42.537Z,1013.83
2023-04-18T15:32:43.340Z,1013.81
2023-04-18T15:33:42.407Z,1013.80
2023-04-18T15:34:42.444Z,1013.81
2023-04-18T15:35:42.458Z,1013.80
2023-04-18T15:36:42.410Z,1013.81
2023-04-18T15:37:42.387Z,1013.79
2023-04-18T15:38:42.353Z,1013.76
2023-04-18T15:39:42.459Z,1013.74
2023-04-18T15:40:42.334Z,1013.76
2023-04-18T15:41:42.359Z,1013.74
2023-04-18T15:42:42.307Z,1013.76
2023-04-18T15:43:42.301Z,1013.78
2023-04-18T15:44:42.470Z,1013.75
2023-04-18T15:45:42.357Z,1013.73
2023-04-18T15:46:42.374Z,1013.73
2023-04-18T15:47:42.330Z,1013.76
2023-04-18T15:48:42.251Z,1013.71
2023-04-18T15:49:42.303Z,1013.70
2023-04-18T15:50:42.289Z,1013.74
2023-04-18T15:51:42.225Z,1013.74
2023-04-18T15:52:42.255Z,1013.75
2023-04-18T15:53:42.204Z,1013.73
2023-04-18T15:54:42.198Z,1013.68
2023-04-18T15:55:42.284Z,1013.74
2023-04-18T15:56:42.208Z,1013.70
2023-04-18T15:57:42.159Z,1013.72
2023-04-18T15:58:42.148Z,1013.70
2023-04-18T15:59:42.144Z,1013.74
2023-04-18T16:00:42.144Z,1013.75
2023-04-18T16:01:43.816Z,1013.73
2023-04-18T16:02:42.170Z,1013.70
2023-04-18T16:03:42.236Z,1013.74
2023-04-18T16:04:42.169Z,1013.73
2023-04-18T16:05:42.081Z,1013.73